Plano's Hourly Summary for Saturday, March 18, 2017
Hour Temp
(f)
RH
(%)
Solar Rad.
(MJ/m2)
Rainfall
(in)
Wind
(mph)
3/18/2017 12:00 AM 72 61 0 0 2.71
3/18/2017 1:00 AM 71 63 0 0 4.45
3/18/2017 2:00 AM 69 67 0 0 5.12
3/18/2017 3:00 AM 67 73 0 0 4.45
3/18/2017 4:00 AM 66 77 0 0 3.07
3/18/2017 5:00 AM 65 80 0 0 2.62
3/18/2017 6:00 AM 64 84 0 0 2.57
3/18/2017 7:00 AM 64 86 0 0 2.53
3/18/2017 8:00 AM 64 86 0.01 0 2.98
3/18/2017 9:00 AM 64 84 0.13 0 4.03
3/18/2017 10:00 AM 65 83 0.28 0 4.79
3/18/2017 11:00 AM 67 74 0.95 0 2.83
3/18/2017 12:00 PM 71 65 2.15 0 2.69
3/18/2017 1:00 PM 74 59 2.39 0 1.98
3/18/2017 2:00 PM 76 56 1.98 0 3.22
3/18/2017 3:00 PM 78 54 2.82 0 3.87
3/18/2017 4:00 PM 79 52 2.08 0 4.76
3/18/2017 5:00 PM 80 48 2.05 0 5.14
3/18/2017 6:00 PM 81 46 1.3 0 4.78
3/18/2017 7:00 PM 80 48 0.62 0 4.59
3/18/2017 8:00 PM 77 52 0.07 0 4.57
3/18/2017 9:00 PM 74 57 0 0 2.49
3/18/2017 10:00 PM 72 60 0 0 1.01
3/18/2017 11:00 PM 71 64 0 0 1.39
Data Summary 71 65 16.83 0.00 3.44